Terminal Aerodrome Forecast
Issued by NWS

Home | Current Version | Previous Version | Graphics & Text | Print | Product List | Glossary On
Versions: 1 2 3 4 5 6 7 8 9 10 11 12 13 14 15 16 17
560
FTUS42 KMHX 050534
TAFISO
TAF
KISO 050534Z 0506/0606 VRB03KT 6SM -RA SCT005 OVC015
     FM050700 VRB04KT 5SM -RA OVC005
     FM051300 33007KT P6SM VCSH SCT007 BKN020
     FM051500 34007KT P6SM SCT025 BKN040
     FM051800 35007KT P6SM SCT050 BKN150
     FM060200 03005KT P6SM SCT050 BKN100
      AMD LTD TO VIS AND WIND=

USA.gov is the U.S. government's official web portal to all federal, state and local government web resources and services.